Terminal Aerodrome Forecast
Issued by NWS

Home | Current Version | Previous Version | Text Only | Print | Product List | Glossary On
Versions: 1 2 3 4 5 6 7 8 9 10 11 12 13 14 15 16 17 18 19 20 21 22 23 24 25 26 27 28 29 30
000
FTUS44 KOUN 231559 AAA
TAFHBR
TAF AMD
KHBR 231559Z 2316/2412 36015G22KT P6SM SCT022 BKN250
      TEMPO 2316/2318 BKN022
     FM232300 32007KT P6SM SCT100=

USA.gov is the U.S. government's official web portal to all federal, state and local government web resources and services.